createdAt,value
2022-09-28T00:02:49.859Z,97720.95
2022-09-28T00:07:56.771Z,97713.08
2022-09-28T00:13:01.531Z,97711.65
2022-09-28T00:18:04.538Z,97715.96
2022-09-28T00:23:07.388Z,97715.67
2022-09-28T00:28:10.496Z,97703.21
2022-09-28T00:33:13.370Z,97702.71
2022-09-28T00:38:17.090Z,97695.57
2022-09-28T00:43:21.055Z,97699.27
2022-09-28T00:48:27.094Z,97700.42
2022-09-28T00:53:35.246Z,97698.42
2022-09-28T00:58:50.229Z,97699.00
2022-09-28T01:03:53.772Z,97697.93
2022-09-28T01:08:59.173Z,97706.91
2022-09-28T01:14:03.463Z,97714.24
2022-09-28T01:19:34.883Z,97710.28
2022-09-28T01:24:46.756Z,97708.20
2022-09-28T01:30:05.964Z,97711.55
2022-09-28T01:35:36.626Z,97713.80
2022-09-28T01:40:41.536Z,97717.13
2022-09-28T01:45:52.586Z,97712.89
2022-09-28T01:51:02.155Z,97708.92
2022-09-28T01:56:13.453Z,97706.33
2022-09-28T02:01:33.529Z,97708.96
2022-09-28T02:06:47.082Z,97709.09
2022-09-28T02:11:59.111Z,97710.16
2022-09-28T02:17:02.120Z,97712.89
2022-09-28T02:22:37.482Z,97707.02
2022-09-28T02:28:05.338Z,97707.65
2022-09-28T02:33:20.724Z,97706.25
2022-09-28T02:38:23.553Z,97705.84
2022-09-28T02:43:53.124Z,97705.59
2022-09-28T02:49:39.450Z,97708.27
2022-09-28T02:54:57.338Z,97709.98
2022-09-28T03:00:08.823Z,97709.44
2022-09-28T03:05:15.841Z,97708.73
2022-09-28T03:10:59.952Z,97711.30
2022-09-28T03:16:08.849Z,97715.39
2022-09-28T03:21:13.719Z,97717.85
2022-09-28T03:26:16.988Z,97720.84
2022-09-28T03:31:19.913Z,97720.28
2022-09-28T03:36:22.866Z,97717.59
2022-09-28T03:41:27.930Z,97716.33
2022-09-28T03:46:30.824Z,97720.02
2022-09-28T03:51:33.696Z,97734.11
2022-09-28T03:56:36.503Z,97747.36
2022-09-28T04:01:39.454Z,97743.44
2022-09-28T04:06:42.609Z,97750.80
2022-09-28T04:12:02.715Z,97747.40
2022-09-28T04:17:07.337Z,97747.61
2022-09-28T04:22:10.495Z,97741.55
2022-09-28T04:27:32.196Z,97738.75
2022-09-28T04:32:35.105Z,97743.49
2022-09-28T04:37:37.958Z,97738.73
2022-09-28T04:42:40.758Z,97736.59
2022-09-28T04:47:43.609Z,97736.54
2022-09-28T04:52:46.455Z,97737.91
2022-09-28T04:57:49.452Z,97741.45
2022-09-28T05:02:54.278Z,97740.69
2022-09-28T05:08:00.269Z,97747.00
2022-09-28T05:13:03.194Z,97753.55
2022-09-28T05:18:07.020Z,97753.86
2022-09-28T05:23:12.497Z,97759.03
2022-09-28T05:28:29.036Z,97752.23
2022-09-28T05:33:33.405Z,97757.54
2022-09-28T05:38:36.434Z,97760.57
2022-09-28T05:43:39.361Z,97767.08
2022-09-28T05:48:42.261Z,97762.06
2022-09-28T05:53:45.308Z,97764.35
2022-09-28T05:58:48.260Z,97763.05
2022-09-28T06:03:51.138Z,97772.47
2022-09-28T06:08:54.012Z,97766.98
2022-09-28T06:13:56.915Z,97768.11
2022-09-28T06:18:59.894Z,97772.23
2022-09-28T06:24:04.119Z,97773.40
2022-09-28T06:29:07.191Z,97784.83
2022-09-28T06:34:11.741Z,97783.80
2022-09-28T06:39:14.641Z,97785.25
2022-09-28T06:44:17.623Z,97789.02
2022-09-28T06:49:20.777Z,97795.86
2022-09-28T06:54:25.878Z,97795.32
2022-09-28T06:59:29.987Z,97798.85
2022-09-28T07:04:32.906Z,97800.01
2022-09-28T07:09:39.741Z,97804.52
2022-09-28T07:14:48.288Z,97807.64
2022-09-28T07:19:52.813Z,97818.31
2022-09-28T07:24:55.762Z,97818.61
2022-09-28T07:29:59.092Z,97825.23
2022-09-28T07:35:05.154Z,97828.77
2022-09-28T07:40:28.001Z,97826.92
2022-09-28T07:45:34.255Z,97826.77
2022-09-28T07:50:37.232Z,97824.99
2022-09-28T07:55:40.088Z,97823.39
2022-09-28T08:00:45.549Z,97825.38
2022-09-28T08:05:48.581Z,97822.00
2022-09-28T08:10:53.277Z,97829.59
2022-09-28T08:16:01.540Z,97826.41
2022-09-28T08:21:25.290Z,97829.88
2022-09-28T08:26:29.244Z,97838.08
2022-09-28T08:31:36.161Z,97838.33
2022-09-28T08:36:39.567Z,97836.84
2022-09-28T08:41:51.684Z,97840.58
2022-09-28T08:47:04.653Z,97842.58
2022-09-28T08:52:17.371Z,97839.33
2022-09-28T08:57:31.106Z,97845.02
2022-09-28T09:02:39.572Z,97837.21
2022-09-28T09:08:31.000Z,97840.40
2022-09-28T09:13:45.911Z,97840.15
2022-09-28T09:18:59.391Z,97836.20
2022-09-28T09:24:24.874Z,97834.34
2022-09-28T09:29:47.887Z,97827.34
2022-09-28T09:35:21.776Z,97828.25
2022-09-28T09:41:20.680Z,97822.97
2022-09-28T09:46:30.850Z,97829.63
2022-09-28T09:51:48.389Z,97826.02
2022-09-28T09:57:09.882Z,97830.21
2022-09-28T10:02:23.956Z,97830.23
2022-09-28T10:07:51.073Z,97828.21
2022-09-28T10:12:54.687Z,97824.38
2022-09-28T10:18:03.129Z,97827.98
2022-09-28T10:23:16.227Z,97835.13
2022-09-28T10:28:35.684Z,97833.61
2022-09-28T10:33:39.569Z,97835.38
2022-09-28T10:38:48.371Z,97837.36
2022-09-28T10:44:11.046Z,97844.83
2022-09-28T10:49:18.037Z,97843.91
2022-09-28T10:54:32.113Z,97851.98
2022-09-28T10:59:40.768Z,97848.71
2022-09-28T11:04:52.311Z,97849.13
2022-09-28T11:09:55.515Z,97856.64
2022-09-28T11:15:07.981Z,97855.52
2022-09-28T11:20:28.489Z,97854.30
2022-09-28T11:25:32.479Z,97851.61
2022-09-28T11:30:49.917Z,97853.48
2022-09-28T11:36:14.553Z,97845.27
2022-09-28T11:41:38.660Z,97836.48
2022-09-28T11:47:22.173Z,97833.56
2022-09-28T11:52:35.129Z,97830.31
2022-09-28T11:57:45.904Z,97839.20
2022-09-28T12:03:15.806Z,97836.27
2022-09-28T12:08:29.214Z,97832.66
2022-09-28T12:13:39.094Z,97834.25
2022-09-28T12:24:21.838Z,97829.84
2022-09-28T12:29:43.608Z,97826.96
2022-09-28T12:34:46.499Z,97821.55
2022-09-28T12:40:13.671Z,97821.64
2022-09-28T12:45:28.605Z,97814.27
2022-09-28T12:51:09.869Z,97811.64
2022-09-28T12:56:54.001Z,97819.80
2022-09-28T13:02:56.834Z,97819.04
2022-09-28T13:08:18.145Z,97828.63
2022-09-28T13:13:37.485Z,97824.17
2022-09-28T13:19:14.856Z,97827.89
2022-09-28T13:24:35.516Z,97826.44
2022-09-28T13:34:50.633Z,97821.24
2022-09-28T13:39:59.070Z,97815.93
2022-09-28T13:45:20.331Z,97819.52
2022-09-28T13:50:54.977Z,97821.64
2022-09-28T13:56:19.037Z,97821.69
2022-09-28T14:01:31.972Z,97828.75
2022-09-28T14:06:34.988Z,97823.23
2022-09-28T14:11:37.821Z,97812.50
2022-09-28T14:16:42.680Z,97800.95
2022-09-28T14:21:59.480Z,97784.23
2022-09-28T14:27:17.505Z,97789.39
2022-09-28T14:32:33.192Z,97792.17
2022-09-28T14:38:00.570Z,97796.02
2022-09-28T14:43:27.394Z,97790.70
2022-09-28T14:49:06.148Z,97793.98
2022-09-28T14:54:11.867Z,97793.85
2022-09-28T14:59:19.669Z,97798.19
2022-09-28T15:04:28.186Z,97805.67
2022-09-28T15:09:35.211Z,97803.09
2022-09-28T15:15:08.611Z,97804.28
2022-09-28T15:20:38.208Z,97815.00
2022-09-28T15:25:41.084Z,97817.86
2022-09-28T15:30:44.055Z,97816.25
2022-09-28T15:36:04.885Z,97820.98
2022-09-28T15:41:10.109Z,97820.25
2022-09-28T15:46:19.214Z,97806.55
2022-09-28T15:51:24.687Z,97794.84
2022-09-28T15:56:28.884Z,97795.61
2022-09-28T16:01:37.001Z,97795.81
2022-09-28T16:06:41.466Z,97791.56
2022-09-28T16:11:44.375Z,97786.47
2022-09-28T16:16:50.526Z,97786.02
2022-09-28T16:21:56.913Z,97781.34
2022-09-28T16:27:03.628Z,97773.54
2022-09-28T16:32:25.373Z,97770.70
2022-09-28T16:37:32.966Z,97761.35
2022-09-28T16:42:37.797Z,97770.77
2022-09-28T16:47:40.705Z,97772.98
2022-09-28T16:53:02.488Z,97760.59
2022-09-28T16:58:06.776Z,97762.21
2022-09-28T17:03:21.268Z,97756.20
2022-09-28T17:08:25.718Z,97748.39
2022-09-28T17:13:33.298Z,97740.16
2022-09-28T17:18:39.300Z,97737.09
2022-09-28T17:23:44.647Z,97740.15
2022-09-28T17:28:47.568Z,97740.67
2022-09-28T17:33:50.485Z,97732.48
2022-09-28T17:38:53.449Z,97729.84
2022-09-28T17:43:56.601Z,97715.77
2022-09-28T17:49:03.099Z,97711.69
2022-09-28T17:54:08.278Z,97709.30
2022-09-28T17:59:16.501Z,97700.80
2022-09-28T18:04:47.306Z,97686.89
2022-09-28T18:09:42.380Z,97700.55
2022-09-28T18:14:45.205Z,97728.14
2022-09-28T18:19:48.005Z,97740.31
2022-09-28T18:24:50.843Z,97753.34
2022-09-28T18:29:53.894Z,97753.74
2022-09-28T18:34:56.683Z,97753.77
2022-09-28T18:39:59.542Z,97756.26
2022-09-28T18:45:05.942Z,97766.66
2022-09-28T18:50:11.909Z,97757.09
2022-09-28T18:55:14.755Z,97769.64
2022-09-28T19:00:17.643Z,97770.53
2022-09-28T19:05:20.522Z,97755.27
2022-09-28T19:10:23.465Z,97757.42
2022-09-28T19:15:26.471Z,97773.02
2022-09-28T19:20:29.469Z,97796.27
2022-09-28T19:25:32.380Z,97821.44
2022-09-28T19:30:35.533Z,97828.46
2022-09-28T19:35:39.877Z,97835.45
2022-09-28T19:40:42.867Z,97841.08
2022-09-28T19:45:45.731Z,97852.11
2022-09-28T19:50:58.694Z,97856.09
2022-09-28T19:56:05.086Z,97852.73
2022-09-28T20:01:08.809Z,97858.48
2022-09-28T20:06:16.452Z,97860.50
2022-09-28T20:11:21.517Z,97863.80
2022-09-28T20:16:24.778Z,97851.34
2022-09-28T20:21:28.110Z,97851.82
2022-09-28T20:26:37.424Z,97845.32
2022-09-28T20:31:40.729Z,97837.61
2022-09-28T20:36:44.792Z,97841.29
2022-09-28T20:41:49.150Z,97845.36
2022-09-28T20:46:52.089Z,97856.02
2022-09-28T20:51:54.973Z,97847.20
2022-09-28T20:56:57.821Z,97855.56
2022-09-28T21:02:00.764Z,97854.47
2022-09-28T21:07:03.757Z,97857.33
2022-09-28T21:12:07.201Z,97862.27
2022-09-28T21:17:10.529Z,97871.05
2022-09-28T21:22:13.466Z,97875.98
2022-09-28T21:27:16.654Z,97883.27
2022-09-28T21:32:19.553Z,97895.27
2022-09-28T21:37:22.445Z,97884.92
2022-09-28T21:42:25.343Z,97883.48
2022-09-28T21:47:28.204Z,97895.76
2022-09-28T21:52:31.378Z,97890.94
2022-09-28T21:57:34.223Z,97884.06
2022-09-28T22:02:39.159Z,97879.63
2022-09-28T22:07:43.177Z,97883.20
2022-09-28T22:12:46.094Z,97874.55
2022-09-28T22:17:48.950Z,97872.45
2022-09-28T22:22:51.893Z,97876.30
2022-09-28T22:27:54.775Z,97880.92
2022-09-28T22:32:57.646Z,97892.45
2022-09-28T22:38:00.483Z,97899.70
2022-09-28T22:43:03.373Z,97902.80
2022-09-28T22:48:07.269Z,97907.65
2022-09-28T22:53:10.105Z,97924.67
2022-09-28T22:58:13.585Z,97929.80
2022-09-28T23:03:17.911Z,97940.67
2022-09-28T23:08:21.908Z,97939.02
2022-09-28T23:13:25.253Z,97927.77
2022-09-28T23:18:32.023Z,97922.93
2022-09-28T23:23:34.901Z,97913.99
2022-09-28T23:28:37.921Z,97917.30
2022-09-28T23:33:41.355Z,97929.14
2022-09-28T23:38:44.363Z,97933.10
2022-09-28T23:43:47.411Z,97942.85
2022-09-28T23:48:50.726Z,97952.98
2022-09-28T23:53:53.713Z,97956.33
2022-09-28T23:58:56.643Z,97965.05
